sensor_id;sensor_type;location;lat;lon;timestamp;P1;durP1;ratioP1;P2;durP2;ratioP2
64597;SDS011;51004;54.692;9.332;2023-08-07T00:00:36;2.60;;;1.75;;
64597;SDS011;51004;54.692;9.332;2023-08-07T00:03:03;3.05;;;1.42;;
64597;SDS011;51004;54.692;9.332;2023-08-07T00:05:29;4.00;;;1.60;;
64597;SDS011;51004;54.692;9.332;2023-08-07T00:07:55;2.97;;;1.60;;
64597;SDS011;51004;54.692;9.332;2023-08-07T00:10:21;3.38;;;1.50;;
64597;SDS011;51004;54.692;9.332;2023-08-07T00:12:47;3.55;;;1.48;;
64597;SDS011;51004;54.692;9.332;2023-08-07T00:15:13;2.75;;;1.50;;
64597;SDS011;51004;54.692;9.332;2023-08-07T00:17:39;3.00;;;1.45;;
64597;SDS011;51004;54.692;9.332;2023-08-07T00:20:06;5.47;;;1.88;;
64597;SDS011;51004;54.692;9.332;2023-08-07T00:22:32;2.92;;;1.50;;
64597;SDS011;51004;54.692;9.332;2023-08-07T00:24:58;3.30;;;1.50;;
64597;SDS011;51004;54.692;9.332;2023-08-07T00:27:24;7.65;;;1.73;;
64597;SDS011;51004;54.692;9.332;2023-08-07T00:29:50;6.30;;;1.75;;
64597;SDS011;51004;54.692;9.332;2023-08-07T00:32:16;3.65;;;1.90;;
64597;SDS011;51004;54.692;9.332;2023-08-07T00:34:42;5.50;;;1.73;;
64597;SDS011;51004;54.692;9.332;2023-08-07T00:37:08;6.70;;;2.53;;
64597;SDS011;51004;54.692;9.332;2023-08-07T00:39:33;2.33;;;1.98;;
64597;SDS011;51004;54.692;9.332;2023-08-07T00:41:59;3.72;;;1.75;;
64597;SDS011;51004;54.692;9.332;2023-08-07T00:44:25;5.45;;;1.70;;
64597;SDS011;51004;54.692;9.332;2023-08-07T00:46:51;4.18;;;2.20;;
64597;SDS011;51004;54.692;9.332;2023-08-07T00:49:18;4.70;;;1.98;;
64597;SDS011;51004;54.692;9.332;2023-08-07T00:51:44;4.53;;;2.28;;
64597;SDS011;51004;54.692;9.332;2023-08-07T00:54:11;3.55;;;1.95;;
64597;SDS011;51004;54.692;9.332;2023-08-07T00:56:40;4.47;;;2.10;;
64597;SDS011;51004;54.692;9.332;2023-08-07T00:59:06;5.50;;;2.10;;
64597;SDS011;51004;54.692;9.332;2023-08-07T01:01:32;4.10;;;1.98;;
64597;SDS011;51004;54.692;9.332;2023-08-07T01:03:58;5.22;;;2.55;;
64597;SDS011;51004;54.692;9.332;2023-08-07T01:06:25;3.28;;;2.03;;
64597;SDS011;51004;54.692;9.332;2023-08-07T01:08:51;4.93;;;2.45;;
64597;SDS011;51004;54.692;9.332;2023-08-07T01:16:29;2.53;;;1.95;;
64597;SDS011;51004;54.692;9.332;2023-08-07T01:18:57;4.90;;;1.90;;
64597;SDS011;51004;54.692;9.332;2023-08-07T01:21:25;5.88;;;2.13;;
64597;SDS011;51004;54.692;9.332;2023-08-07T01:23:51;4.18;;;1.90;;
64597;SDS011;51004;54.692;9.332;2023-08-07T01:26:17;4.63;;;2.20;;
64597;SDS011;51004;54.692;9.332;2023-08-07T01:28:46;6.25;;;2.08;;
64597;SDS011;51004;54.692;9.332;2023-08-07T01:31:15;2.75;;;1.70;;
64597;SDS011;51004;54.692;9.332;2023-08-07T01:34:05;3.55;;;2.08;;
64597;SDS011;51004;54.692;9.332;2023-08-07T01:36:31;5.95;;;1.98;;
64597;SDS011;51004;54.692;9.332;2023-08-07T01:38:58;4.13;;;1.88;;
64597;SDS011;51004;54.692;9.332;2023-08-07T01:41:25;4.13;;;2.10;;
64597;SDS011;51004;54.692;9.332;2023-08-07T01:43:51;5.53;;;2.15;;
64597;SDS011;51004;54.692;9.332;2023-08-07T01:46:18;7.88;;;2.08;;
64597;SDS011;51004;54.692;9.332;2023-08-07T01:48:44;4.15;;;2.20;;
64597;SDS011;51004;54.692;9.332;2023-08-07T01:51:10;7.45;;;2.17;;
64597;SDS011;51004;54.692;9.332;2023-08-07T01:53:36;4.35;;;2.50;;
64597;SDS011;51004;54.692;9.332;2023-08-07T01:56:02;8.65;;;3.20;;
64597;SDS011;51004;54.692;9.332;2023-08-07T01:58:28;3.88;;;2.13;;
64597;SDS011;51004;54.692;9.332;2023-08-07T02:00:54;8.23;;;3.30;;
64597;SDS011;51004;54.692;9.332;2023-08-07T02:03:20;3.72;;;2.08;;
64597;SDS011;51004;54.692;9.332;2023-08-07T02:05:46;5.45;;;2.20;;
64597;SDS011;51004;54.692;9.332;2023-08-07T02:08:12;6.80;;;2.20;;
64597;SDS011;51004;54.692;9.332;2023-08-07T02:10:38;5.93;;;2.45;;
64597;SDS011;51004;54.692;9.332;2023-08-07T02:13:04;6.15;;;2.53;;
64597;SDS011;51004;54.692;9.332;2023-08-07T02:15:30;3.20;;;2.10;;
64597;SDS011;51004;54.692;9.332;2023-08-07T02:17:56;5.20;;;2.53;;
64597;SDS011;51004;54.692;9.332;2023-08-07T02:20:22;4.18;;;1.92;;
64597;SDS011;51004;54.692;9.332;2023-08-07T02:22:48;2.90;;;1.50;;
64597;SDS011;51004;54.692;9.332;2023-08-07T02:25:14;6.70;;;1.65;;
64597;SDS011;51004;54.692;9.332;2023-08-07T02:27:40;5.35;;;1.60;;
64597;SDS011;51004;54.692;9.332;2023-08-07T02:30:06;4.00;;;1.65;;
64597;SDS011;51004;54.692;9.332;2023-08-07T02:32:32;4.75;;;1.80;;
64597;SDS011;51004;54.692;9.332;2023-08-07T02:34:58;5.13;;;2.28;;
64597;SDS011;51004;54.692;9.332;2023-08-07T02:37:24;6.00;;;1.85;;
64597;SDS011;51004;54.692;9.332;2023-08-07T02:39:50;3.78;;;1.70;;
64597;SDS011;51004;54.692;9.332;2023-08-07T02:42:18;3.78;;;1.90;;
64597;SDS011;51004;54.692;9.332;2023-08-07T02:44:44;4.95;;;1.88;;
64597;SDS011;51004;54.692;9.332;2023-08-07T02:47:10;6.25;;;1.60;;
64597;SDS011;51004;54.692;9.332;2023-08-07T02:49:36;4.90;;;1.98;;
64597;SDS011;51004;54.692;9.332;2023-08-07T02:52:02;5.43;;;1.73;;
64597;SDS011;51004;54.692;9.332;2023-08-07T02:54:28;5.45;;;1.80;;
64597;SDS011;51004;54.692;9.332;2023-08-07T02:56:54;6.00;;;2.13;;
64597;SDS011;51004;54.692;9.332;2023-08-07T02:59:20;5.25;;;1.70;;
64597;SDS011;51004;54.692;9.332;2023-08-07T03:01:46;4.90;;;1.48;;
64597;SDS011;51004;54.692;9.332;2023-08-07T03:04:11;5.38;;;1.95;;
64597;SDS011;51004;54.692;9.332;2023-08-07T03:06:37;5.60;;;1.55;;
64597;SDS011;51004;54.692;9.332;2023-08-07T03:09:03;5.32;;;1.90;;
64597;SDS011;51004;54.692;9.332;2023-08-07T03:11:29;6.20;;;2.05;;
64597;SDS011;51004;54.692;9.332;2023-08-07T03:13:56;4.40;;;1.67;;
64597;SDS011;51004;54.692;9.332;2023-08-07T03:16:34;5.57;;;1.77;;
64597;SDS011;51004;54.692;9.332;2023-08-07T03:19:00;5.32;;;1.70;;
64597;SDS011;51004;54.692;9.332;2023-08-07T03:21:26;6.68;;;1.90;;
64597;SDS011;51004;54.692;9.332;2023-08-07T03:23:52;7.43;;;1.90;;
64597;SDS011;51004;54.692;9.332;2023-08-07T03:26:18;9.15;;;1.98;;
64597;SDS011;51004;54.692;9.332;2023-08-07T03:28:44;6.57;;;2.05;;
64597;SDS011;51004;54.692;9.332;2023-08-07T03:31:11;6.45;;;1.77;;
64597;SDS011;51004;54.692;9.332;2023-08-07T03:33:37;6.80;;;2.17;;
64597;SDS011;51004;54.692;9.332;2023-08-07T03:36:03;7.30;;;2.38;;
64597;SDS011;51004;54.692;9.332;2023-08-07T03:41:00;7.88;;;2.60;;
64597;SDS011;51004;54.692;9.332;2023-08-07T03:43:26;7.93;;;2.80;;
64597;SDS011;51004;54.692;9.332;2023-08-07T03:45:55;6.70;;;2.40;;
64597;SDS011;51004;54.692;9.332;2023-08-07T03:48:21;7.05;;;2.00;;
64597;SDS011;51004;54.692;9.332;2023-08-07T03:50:49;10.45;;;2.72;;
64597;SDS011;51004;54.692;9.332;2023-08-07T03:53:15;5.97;;;2.30;;
64597;SDS011;51004;54.692;9.332;2023-08-07T03:55:41;7.03;;;2.35;;
64597;SDS011;51004;54.692;9.332;2023-08-07T03:58:07;11.77;;;2.60;;
64597;SDS011;51004;54.692;9.332;2023-08-07T04:00:33;10.38;;;2.20;;
64597;SDS011;51004;54.692;9.332;2023-08-07T04:02:59;11.65;;;3.25;;
64597;SDS011;51004;54.692;9.332;2023-08-07T04:05:25;7.85;;;2.33;;
64597;SDS011;51004;54.692;9.332;2023-08-07T04:07:51;8.43;;;2.88;;
64597;SDS011;51004;54.692;9.332;2023-08-07T04:10:17;9.05;;;2.38;;
64597;SDS011;51004;54.692;9.332;2023-08-07T04:12:43;9.82;;;3.00;;
64597;SDS011;51004;54.692;9.332;2023-08-07T04:15:09;6.95;;;2.25;;
64597;SDS011;51004;54.692;9.332;2023-08-07T04:17:35;12.57;;;2.25;;
64597;SDS011;51004;54.692;9.332;2023-08-07T04:20:01;11.00;;;2.35;;
64597;SDS011;51004;54.692;9.332;2023-08-07T04:22:28;13.68;;;3.58;;
64597;SDS011;51004;54.692;9.332;2023-08-07T04:24:54;8.43;;;2.03;;
64597;SDS011;51004;54.692;9.332;2023-08-07T04:27:23;7.85;;;2.60;;
64597;SDS011;51004;54.692;9.332;2023-08-07T04:29:49;9.88;;;2.38;;
64597;SDS011;51004;54.692;9.332;2023-08-07T04:32:15;11.60;;;2.90;;
64597;SDS011;51004;54.692;9.332;2023-08-07T04:34:41;14.07;;;3.03;;
64597;SDS011;51004;54.692;9.332;2023-08-07T04:37:10;15.23;;;3.80;;
64597;SDS011;51004;54.692;9.332;2023-08-07T04:39:36;12.07;;;2.67;;
64597;SDS011;51004;54.692;9.332;2023-08-07T04:42:02;11.32;;;3.53;;
64597;SDS011;51004;54.692;9.332;2023-08-07T04:44:28;8.02;;;2.60;;
64597;SDS011;51004;54.692;9.332;2023-08-07T04:46:54;15.43;;;3.72;;
64597;SDS011;51004;54.692;9.332;2023-08-07T04:49:20;11.02;;;2.85;;
64597;SDS011;51004;54.692;9.332;2023-08-07T04:51:46;11.40;;;3.70;;
64597;SDS011;51004;54.692;9.332;2023-08-07T04:54:12;12.80;;;3.00;;
64597;SDS011;51004;54.692;9.332;2023-08-07T04:56:38;14.40;;;3.38;;
64597;SDS011;51004;54.692;9.332;2023-08-07T04:59:04;10.82;;;3.08;;
64597;SDS011;51004;54.692;9.332;2023-08-07T05:01:31;12.63;;;2.85;;
64597;SDS011;51004;54.692;9.332;2023-08-07T05:03:57;12.35;;;3.03;;
64597;SDS011;51004;54.692;9.332;2023-08-07T05:06:24;11.60;;;2.65;;
64597;SDS011;51004;54.692;9.332;2023-08-07T05:08:50;11.13;;;3.40;;
64597;SDS011;51004;54.692;9.332;2023-08-07T05:11:15;12.48;;;2.80;;
64597;SDS011;51004;54.692;9.332;2023-08-07T05:13:41;15.68;;;3.45;;
64597;SDS011;51004;54.692;9.332;2023-08-07T05:16:07;14.05;;;2.42;;
64597;SDS011;51004;54.692;9.332;2023-08-07T05:18:33;10.52;;;3.08;;
64597;SDS011;51004;54.692;9.332;2023-08-07T05:20:59;11.38;;;3.85;;
64597;SDS011;51004;54.692;9.332;2023-08-07T05:23:25;14.45;;;2.80;;
64597;SDS011;51004;54.692;9.332;2023-08-07T05:25:51;12.75;;;3.92;;
64597;SDS011;51004;54.692;9.332;2023-08-07T05:28:17;13.20;;;3.15;;
64597;SDS011;51004;54.692;9.332;2023-08-07T05:30:43;17.40;;;3.38;;
64597;SDS011;51004;54.692;9.332;2023-08-07T05:33:09;19.48;;;3.65;;
64597;SDS011;51004;54.692;9.332;2023-08-07T05:35:35;12.43;;;2.92;;
64597;SDS011;51004;54.692;9.332;2023-08-07T05:38:01;15.50;;;3.85;;
64597;SDS011;51004;54.692;9.332;2023-08-07T05:40:26;11.57;;;3.40;;
64597;SDS011;51004;54.692;9.332;2023-08-07T05:42:54;14.27;;;3.47;;
64597;SDS011;51004;54.692;9.332;2023-08-07T05:45:22;13.52;;;3.47;;
64597;SDS011;51004;54.692;9.332;2023-08-07T05:47:48;16.90;;;3.50;;
64597;SDS011;51004;54.692;9.332;2023-08-07T05:50:14;14.00;;;3.47;;
64597;SDS011;51004;54.692;9.332;2023-08-07T05:52:40;11.02;;;3.25;;
64597;SDS011;51004;54.692;9.332;2023-08-07T05:55:06;18.60;;;3.40;;
64597;SDS011;51004;54.692;9.332;2023-08-07T05:57:33;10.75;;;2.50;;
64597;SDS011;51004;54.692;9.332;2023-08-07T05:59:58;13.25;;;3.75;;
64597;SDS011;51004;54.692;9.332;2023-08-07T06:02:24;10.55;;;2.53;;
64597;SDS011;51004;54.692;9.332;2023-08-07T06:04:51;11.88;;;3.35;;
64597;SDS011;51004;54.692;9.332;2023-08-07T06:07:18;16.90;;;3.55;;
64597;SDS011;51004;54.692;9.332;2023-08-07T06:09:43;11.73;;;3.15;;
64597;SDS011;51004;54.692;9.332;2023-08-07T06:12:09;12.95;;;3.33;;
64597;SDS011;51004;54.692;9.332;2023-08-07T06:14:36;8.73;;;3.50;;
64597;SDS011;51004;54.692;9.332;2023-08-07T06:17:03;11.77;;;3.00;;
64597;SDS011;51004;54.692;9.332;2023-08-07T06:19:29;16.95;;;5.55;;
64597;SDS011;51004;54.692;9.332;2023-08-07T06:21:55;11.38;;;3.58;;
64597;SDS011;51004;54.692;9.332;2023-08-07T06:24:21;16.55;;;3.63;;
64597;SDS011;51004;54.692;9.332;2023-08-07T06:26:47;13.32;;;3.75;;
64597;SDS011;51004;54.692;9.332;2023-08-07T06:29:13;11.13;;;2.92;;
64597;SDS011;51004;54.692;9.332;2023-08-07T06:31:39;16.50;;;4.90;;
64597;SDS011;51004;54.692;9.332;2023-08-07T06:34:05;14.98;;;3.03;;
64597;SDS011;51004;54.692;9.332;2023-08-07T06:36:31;12.10;;;3.53;;
64597;SDS011;51004;54.692;9.332;2023-08-07T06:38:57;12.88;;;2.83;;
64597;SDS011;51004;54.692;9.332;2023-08-07T06:41:23;9.98;;;2.95;;
64597;SDS011;51004;54.692;9.332;2023-08-07T06:43:49;15.13;;;3.65;;
64597;SDS011;51004;54.692;9.332;2023-08-07T06:46:16;13.60;;;3.15;;
64597;SDS011;51004;54.692;9.332;2023-08-07T06:48:52;16.30;;;3.97;;
64597;SDS011;51004;54.692;9.332;2023-08-07T06:51:21;10.25;;;3.13;;
64597;SDS011;51004;54.692;9.332;2023-08-07T06:53:47;18.55;;;3.85;;
64597;SDS011;51004;54.692;9.332;2023-08-07T06:56:13;14.32;;;3.53;;
64597;SDS011;51004;54.692;9.332;2023-08-07T06:58:39;15.57;;;3.92;;
64597;SDS011;51004;54.692;9.332;2023-08-07T07:01:05;15.90;;;3.88;;
64597;SDS011;51004;54.692;9.332;2023-08-07T07:03:31;17.63;;;4.20;;
64597;SDS011;51004;54.692;9.332;2023-08-07T07:05:57;15.20;;;3.97;;
64597;SDS011;51004;54.692;9.332;2023-08-07T07:08:23;17.88;;;4.05;;
64597;SDS011;51004;54.692;9.332;2023-08-07T07:10:49;15.23;;;4.55;;
64597;SDS011;51004;54.692;9.332;2023-08-07T07:13:15;17.65;;;4.38;;
64597;SDS011;51004;54.692;9.332;2023-08-07T07:15:41;18.13;;;4.05;;
64597;SDS011;51004;54.692;9.332;2023-08-07T07:18:06;19.20;;;4.38;;
64597;SDS011;51004;54.692;9.332;2023-08-07T07:20:33;15.75;;;4.00;;
64597;SDS011;51004;54.692;9.332;2023-08-07T07:22:59;17.25;;;4.30;;
64597;SDS011;51004;54.692;9.332;2023-08-07T07:25:25;12.57;;;3.35;;
64597;SDS011;51004;54.692;9.332;2023-08-07T07:27:51;25.15;;;4.65;;
64597;SDS011;51004;54.692;9.332;2023-08-07T07:30:17;13.65;;;3.65;;
64597;SDS011;51004;54.692;9.332;2023-08-07T07:32:44;15.55;;;4.20;;
64597;SDS011;51004;54.692;9.332;2023-08-07T07:35:12;17.02;;;3.88;;
64597;SDS011;51004;54.692;9.332;2023-08-07T07:37:37;16.75;;;3.88;;
64597;SDS011;51004;54.692;9.332;2023-08-07T07:40:04;16.95;;;4.00;;
64597;SDS011;51004;54.692;9.332;2023-08-07T07:42:30;14.57;;;4.30;;
64597;SDS011;51004;54.692;9.332;2023-08-07T07:44:56;14.35;;;4.18;;
64597;SDS011;51004;54.692;9.332;2023-08-07T07:47:22;17.83;;;3.85;;
64597;SDS011;51004;54.692;9.332;2023-08-07T07:49:48;12.50;;;3.67;;
64597;SDS011;51004;54.692;9.332;2023-08-07T07:52:14;17.40;;;4.07;;
64597;SDS011;51004;54.692;9.332;2023-08-07T07:54:40;14.85;;;3.30;;
64597;SDS011;51004;54.692;9.332;2023-08-07T07:57:07;16.52;;;5.05;;
64597;SDS011;51004;54.692;9.332;2023-08-07T07:59:38;14.90;;;3.13;;
64597;SDS011;51004;54.692;9.332;2023-08-07T08:02:04;14.52;;;3.35;;
64597;SDS011;51004;54.692;9.332;2023-08-07T08:04:33;20.05;;;4.38;;
64597;SDS011;51004;54.692;9.332;2023-08-07T08:07:00;20.85;;;4.70;;
64597;SDS011;51004;54.692;9.332;2023-08-07T08:09:26;14.77;;;3.90;;
64597;SDS011;51004;54.692;9.332;2023-08-07T08:11:52;10.90;;;2.65;;
64597;SDS011;51004;54.692;9.332;2023-08-07T08:14:20;14.43;;;3.33;;
64597;SDS011;51004;54.692;9.332;2023-08-07T08:16:46;16.05;;;3.70;;
64597;SDS011;51004;54.692;9.332;2023-08-07T08:19:12;12.57;;;3.42;;
64597;SDS011;51004;54.692;9.332;2023-08-07T08:21:40;18.67;;;4.22;;
64597;SDS011;51004;54.692;9.332;2023-08-07T08:24:06;16.67;;;3.28;;
64597;SDS011;51004;54.692;9.332;2023-08-07T08:26:32;11.68;;;3.45;;
64597;SDS011;51004;54.692;9.332;2023-08-07T08:28:58;14.05;;;3.30;;
64597;SDS011;51004;54.692;9.332;2023-08-07T08:31:24;13.73;;;3.67;;
64597;SDS011;51004;54.692;9.332;2023-08-07T08:33:50;17.70;;;4.10;;
64597;SDS011;51004;54.692;9.332;2023-08-07T08:36:16;11.05;;;3.17;;
64597;SDS011;51004;54.692;9.332;2023-08-07T08:38:44;8.68;;;2.80;;
64597;SDS011;51004;54.692;9.332;2023-08-07T08:41:13;11.32;;;3.00;;
64597;SDS011;51004;54.692;9.332;2023-08-07T08:43:41;13.10;;;3.10;;
64597;SDS011;51004;54.692;9.332;2023-08-07T08:46:18;14.60;;;3.47;;
64597;SDS011;51004;54.692;9.332;2023-08-07T08:48:47;10.95;;;2.95;;
64597;SDS011;51004;54.692;9.332;2023-08-07T08:51:15;8.57;;;2.58;;
64597;SDS011;51004;54.692;9.332;2023-08-07T08:53:43;10.40;;;3.47;;
64597;SDS011;51004;54.692;9.332;2023-08-07T08:56:10;12.20;;;3.45;;
64597;SDS011;51004;54.692;9.332;2023-08-07T08:58:39;9.00;;;3.20;;
64597;SDS011;51004;54.692;9.332;2023-08-07T09:03:39;15.13;;;3.50;;
64597;SDS011;51004;54.692;9.332;2023-08-07T09:06:08;12.38;;;3.42;;
64597;SDS011;51004;54.692;9.332;2023-08-07T09:08:34;19.52;;;3.97;;
64597;SDS011;51004;54.692;9.332;2023-08-07T09:11:17;13.40;;;3.00;;
64597;SDS011;51004;54.692;9.332;2023-08-07T09:13:47;16.63;;;3.28;;
64597;SDS011;51004;54.692;9.332;2023-08-07T09:16:13;15.57;;;3.72;;
64597;SDS011;51004;54.692;9.332;2023-08-07T09:18:40;10.30;;;3.10;;
64597;SDS011;51004;54.692;9.332;2023-08-07T09:21:12;17.60;;;3.10;;
64597;SDS011;51004;54.692;9.332;2023-08-07T09:23:41;17.83;;;3.60;;
64597;SDS011;51004;54.692;9.332;2023-08-07T09:26:07;18.45;;;4.45;;
64597;SDS011;51004;54.692;9.332;2023-08-07T09:28:35;13.32;;;3.45;;
64597;SDS011;51004;54.692;9.332;2023-08-07T09:31:13;14.30;;;3.13;;
64597;SDS011;51004;54.692;9.332;2023-08-07T09:33:40;11.02;;;2.70;;
64597;SDS011;51004;54.692;9.332;2023-08-07T09:36:09;8.02;;;2.75;;
64597;SDS011;51004;54.692;9.332;2023-08-07T09:38:35;10.38;;;2.42;;
64597;SDS011;51004;54.692;9.332;2023-08-07T09:41:04;15.38;;;3.20;;
64597;SDS011;51004;54.692;9.332;2023-08-07T09:43:48;12.13;;;2.65;;
64597;SDS011;51004;54.692;9.332;2023-08-07T09:46:14;8.98;;;2.53;;
64597;SDS011;51004;54.692;9.332;2023-08-07T09:48:43;8.00;;;2.20;;
64597;SDS011;51004;54.692;9.332;2023-08-07T09:51:10;11.50;;;3.03;;
64597;SDS011;51004;54.692;9.332;2023-08-07T09:53:39;8.45;;;2.33;;
64597;SDS011;51004;54.692;9.332;2023-08-07T09:57:13;14.70;;;3.95;;
64597;SDS011;51004;54.692;9.332;2023-08-07T09:59:13;11.20;;;2.25;;
64597;SDS011;51004;54.692;9.332;2023-08-07T10:01:57;11.23;;;3.13;;
64597;SDS011;51004;54.692;9.332;2023-08-07T10:04:27;11.13;;;2.65;;
64597;SDS011;51004;54.692;9.332;2023-08-07T10:06:54;8.45;;;2.15;;
64597;SDS011;51004;54.692;9.332;2023-08-07T10:09:20;12.20;;;2.92;;
64597;SDS011;51004;54.692;9.332;2023-08-07T10:11:46;11.23;;;3.00;;
64597;SDS011;51004;54.692;9.332;2023-08-07T10:14:17;13.60;;;3.03;;
64597;SDS011;51004;54.692;9.332;2023-08-07T10:16:43;10.85;;;3.45;;
64597;SDS011;51004;54.692;9.332;2023-08-07T10:19:16;17.27;;;3.58;;
64597;SDS011;51004;54.692;9.332;2023-08-07T10:21:45;14.23;;;3.30;;
64597;SDS011;51004;54.692;9.332;2023-08-07T10:24:18;9.68;;;2.70;;
64597;SDS011;51004;54.692;9.332;2023-08-07T10:26:45;22.55;;;3.45;;
64597;SDS011;51004;54.692;9.332;2023-08-07T10:29:13;15.77;;;2.85;;
64597;SDS011;51004;54.692;9.332;2023-08-07T10:31:40;13.07;;;2.97;;
64597;SDS011;51004;54.692;9.332;2023-08-07T10:34:08;14.77;;;3.47;;
64597;SDS011;51004;54.692;9.332;2023-08-07T10:36:37;16.15;;;3.70;;
64597;SDS011;51004;54.692;9.332;2023-08-07T10:39:07;19.00;;;3.50;;
64597;SDS011;51004;54.692;9.332;2023-08-07T10:41:53;14.02;;;3.53;;
64597;SDS011;51004;54.692;9.332;2023-08-07T10:44:20;16.35;;;3.70;;
64597;SDS011;51004;54.692;9.332;2023-08-07T10:46:56;14.90;;;3.40;;
64597;SDS011;51004;54.692;9.332;2023-08-07T10:49:38;12.70;;;3.60;;
64597;SDS011;51004;54.692;9.332;2023-08-07T10:52:07;22.15;;;3.40;;
64597;SDS011;51004;54.692;9.332;2023-08-07T10:54:40;12.10;;;3.15;;
64597;SDS011;51004;54.692;9.332;2023-08-07T10:57:13;13.55;;;3.33;;
64597;SDS011;51004;54.692;9.332;2023-08-07T11:00:12;11.90;;;2.80;;
64597;SDS011;51004;54.692;9.332;2023-08-07T11:02:41;11.50;;;2.72;;
64597;SDS011;51004;54.692;9.332;2023-08-07T11:05:07;14.30;;;3.47;;
64597;SDS011;51004;54.692;9.332;2023-08-07T11:07:40;13.88;;;2.90;;
64597;SDS011;51004;54.692;9.332;2023-08-07T11:10:06;15.70;;;4.20;;
64597;SDS011;51004;54.692;9.332;2023-08-07T11:12:33;10.55;;;3.05;;
64597;SDS011;51004;54.692;9.332;2023-08-07T11:14:58;8.82;;;2.80;;
64597;SDS011;51004;54.692;9.332;2023-08-07T11:17:31;15.70;;;3.60;;
64597;SDS011;51004;54.692;9.332;2023-08-07T11:19:59;9.35;;;2.92;;
64597;SDS011;51004;54.692;9.332;2023-08-07T11:22:29;15.45;;;3.72;;
64597;SDS011;51004;54.692;9.332;2023-08-07T11:24:58;18.58;;;3.20;;
64597;SDS011;51004;54.692;9.332;2023-08-07T11:27:24;13.32;;;3.00;;
64597;SDS011;51004;54.692;9.332;2023-08-07T11:29:50;11.32;;;2.55;;
64597;SDS011;51004;54.692;9.332;2023-08-07T11:32:16;15.18;;;3.67;;
64597;SDS011;51004;54.692;9.332;2023-08-07T11:34:47;13.10;;;3.55;;
64597;SDS011;51004;54.692;9.332;2023-08-07T11:37:20;11.73;;;2.70;;
64597;SDS011;51004;54.692;9.332;2023-08-07T11:39:46;15.20;;;3.40;;
64597;SDS011;51004;54.692;9.332;2023-08-07T11:42:15;14.07;;;3.63;;
64597;SDS011;51004;54.692;9.332;2023-08-07T11:44:44;14.98;;;3.67;;
64597;SDS011;51004;54.692;9.332;2023-08-07T11:47:16;16.00;;;3.35;;
64597;SDS011;51004;54.692;9.332;2023-08-07T11:49:42;13.27;;;3.13;;
64597;SDS011;51004;54.692;9.332;2023-08-07T11:52:08;8.73;;;2.75;;
64597;SDS011;51004;54.692;9.332;2023-08-07T11:54:34;15.63;;;3.30;;
64597;SDS011;51004;54.692;9.332;2023-08-07T11:57:03;13.55;;;3.00;;
64597;SDS011;51004;54.692;9.332;2023-08-07T11:59:29;12.55;;;2.75;;
64597;SDS011;51004;54.692;9.332;2023-08-07T12:01:55;12.13;;;3.08;;
64597;SDS011;51004;54.692;9.332;2023-08-07T12:04:22;14.95;;;2.85;;
64597;SDS011;51004;54.692;9.332;2023-08-07T12:12:45;12.05;;;2.60;;
64597;SDS011;51004;54.692;9.332;2023-08-07T12:15:11;12.95;;;3.45;;
64597;SDS011;51004;54.692;9.332;2023-08-07T12:17:40;14.07;;;2.88;;
64597;SDS011;51004;54.692;9.332;2023-08-07T12:20:09;10.63;;;2.53;;
64597;SDS011;51004;54.692;9.332;2023-08-07T12:22:44;11.43;;;3.03;;
64597;SDS011;51004;54.692;9.332;2023-08-07T12:25:19;12.23;;;2.50;;
64597;SDS011;51004;54.692;9.332;2023-08-07T12:27:45;12.65;;;2.45;;
64597;SDS011;51004;54.692;9.332;2023-08-07T12:30:12;9.25;;;2.97;;
64597;SDS011;51004;54.692;9.332;2023-08-07T12:32:44;17.92;;;3.47;;
64597;SDS011;51004;54.692;9.332;2023-08-07T12:35:10;13.68;;;2.78;;
64597;SDS011;51004;54.692;9.332;2023-08-07T12:37:42;11.35;;;3.60;;
64597;SDS011;51004;54.692;9.332;2023-08-07T12:40:09;13.18;;;2.97;;
64597;SDS011;51004;54.692;9.332;2023-08-07T12:42:35;9.80;;;2.90;;
64597;SDS011;51004;54.692;9.332;2023-08-07T12:45:01;12.18;;;3.13;;
64597;SDS011;51004;54.692;9.332;2023-08-07T12:47:27;13.45;;;4.43;;
64597;SDS011;51004;54.692;9.332;2023-08-07T12:49:55;14.65;;;3.53;;
64597;SDS011;51004;54.692;9.332;2023-08-07T12:52:30;13.00;;;3.50;;
64597;SDS011;51004;54.692;9.332;2023-08-07T12:54:58;14.98;;;3.90;;
64597;SDS011;51004;54.692;9.332;2023-08-07T12:57:27;14.85;;;3.30;;
64597;SDS011;51004;54.692;9.332;2023-08-07T12:59:53;11.70;;;2.47;;
64597;SDS011;51004;54.692;9.332;2023-08-07T13:02:24;20.05;;;3.20;;
64597;SDS011;51004;54.692;9.332;2023-08-07T13:04:53;14.23;;;3.20;;
64597;SDS011;51004;54.692;9.332;2023-08-07T13:07:20;15.85;;;3.85;;
64597;SDS011;51004;54.692;9.332;2023-08-07T13:09:46;13.65;;;2.70;;
64597;SDS011;51004;54.692;9.332;2023-08-07T13:12:12;11.77;;;3.65;;
64597;SDS011;51004;54.692;9.332;2023-08-07T13:14:41;13.77;;;3.00;;
64597;SDS011;51004;54.692;9.332;2023-08-07T13:17:07;14.77;;;3.00;;
64597;SDS011;51004;54.692;9.332;2023-08-07T13:19:33;12.00;;;2.85;;
64597;SDS011;51004;54.692;9.332;2023-08-07T13:21:59;10.18;;;3.22;;
64597;SDS011;51004;54.692;9.332;2023-08-07T13:24:25;8.75;;;2.30;;
64597;SDS011;51004;54.692;9.332;2023-08-07T13:26:51;11.98;;;3.28;;
64597;SDS011;51004;54.692;9.332;2023-08-07T13:29:19;13.95;;;3.10;;
64597;SDS011;51004;54.692;9.332;2023-08-07T13:31:46;11.30;;;2.63;;
64597;SDS011;51004;54.692;9.332;2023-08-07T13:34:13;10.85;;;2.90;;
64597;SDS011;51004;54.692;9.332;2023-08-07T13:36:39;11.50;;;2.65;;
64597;SDS011;51004;54.692;9.332;2023-08-07T13:39:08;9.38;;;2.20;;
64597;SDS011;51004;54.692;9.332;2023-08-07T13:41:34;14.23;;;3.28;;
64597;SDS011;51004;54.692;9.332;2023-08-07T13:44:00;11.07;;;3.00;;
64597;SDS011;51004;54.692;9.332;2023-08-07T13:46:26;9.55;;;2.55;;
64597;SDS011;51004;54.692;9.332;2023-08-07T13:48:52;12.60;;;3.05;;
64597;SDS011;51004;54.692;9.332;2023-08-07T13:51:18;14.70;;;3.42;;
64597;SDS011;51004;54.692;9.332;2023-08-07T13:53:49;9.93;;;3.47;;
64597;SDS011;51004;54.692;9.332;2023-08-07T13:56:20;16.88;;;3.65;;
64597;SDS011;51004;54.692;9.332;2023-08-07T13:58:46;16.60;;;3.70;;
64597;SDS011;51004;54.692;9.332;2023-08-07T14:01:14;11.13;;;3.13;;
64597;SDS011;51004;54.692;9.332;2023-08-07T14:03:40;13.30;;;3.13;;
64597;SDS011;51004;54.692;9.332;2023-08-07T14:06:07;13.65;;;2.97;;
64597;SDS011;51004;54.692;9.332;2023-08-07T14:08:33;9.40;;;2.33;;
64597;SDS011;51004;54.692;9.332;2023-08-07T14:11:04;12.25;;;2.78;;
64597;SDS011;51004;54.692;9.332;2023-08-07T14:13:31;11.00;;;3.20;;
64597;SDS011;51004;54.692;9.332;2023-08-07T14:15:59;9.20;;;2.58;;
64597;SDS011;51004;54.692;9.332;2023-08-07T14:18:29;13.00;;;3.00;;
64597;SDS011;51004;54.692;9.332;2023-08-07T14:20:55;8.73;;;2.83;;
64597;SDS011;51004;54.692;9.332;2023-08-07T14:23:21;9.38;;;2.60;;
64597;SDS011;51004;54.692;9.332;2023-08-07T14:25:53;7.93;;;2.45;;
64597;SDS011;51004;54.692;9.332;2023-08-07T14:28:19;12.70;;;2.83;;
64597;SDS011;51004;54.692;9.332;2023-08-07T14:30:53;9.00;;;2.78;;
64597;SDS011;51004;54.692;9.332;2023-08-07T14:33:23;11.10;;;2.78;;
64597;SDS011;51004;54.692;9.332;2023-08-07T14:36:09;12.40;;;2.80;;
64597;SDS011;51004;54.692;9.332;2023-08-07T14:38:35;12.55;;;2.63;;
64597;SDS011;51004;54.692;9.332;2023-08-07T14:41:04;5.65;;;1.85;;
64597;SDS011;51004;54.692;9.332;2023-08-07T14:43:30;12.80;;;3.25;;
64597;SDS011;51004;54.692;9.332;2023-08-07T14:45:59;9.15;;;2.00;;
64597;SDS011;51004;54.692;9.332;2023-08-07T14:48:28;12.25;;;2.65;;
64597;SDS011;51004;54.692;9.332;2023-08-07T14:50:54;8.95;;;2.13;;
64597;SDS011;51004;54.692;9.332;2023-08-07T14:53:31;10.90;;;3.17;;
64597;SDS011;51004;54.692;9.332;2023-08-07T14:55:57;11.32;;;2.28;;